createdAt,value
2023-04-18T00:00:32.441Z,2.25
2023-04-18T00:01:44.599Z,2.55
2023-04-18T00:02:56.478Z,2.50
2023-04-18T00:04:08.920Z,2.30
2023-04-18T00:05:20.918Z,3.03
2023-04-18T00:06:32.608Z,3.20
2023-04-18T00:07:44.666Z,3.00
2023-04-18T00:08:56.470Z,4.70
2023-04-18T00:10:08.213Z,2.28
2023-04-18T00:11:19.663Z,4.03
2023-04-18T00:12:32.051Z,2.15
2023-04-18T00:13:44.423Z,3.20
2023-04-18T00:14:58.728Z,6.15
2023-04-18T00:16:10.278Z,2.70
2023-04-18T00:17:22.372Z,2.28
2023-04-18T00:18:33.880Z,1.73
2023-04-18T00:19:45.466Z,2.42
2023-04-18T00:20:56.958Z,3.17
2023-04-18T00:22:08.789Z,1.17
2023-04-18T00:23:21.558Z,1.45
2023-04-18T00:25:07.082Z,1.85
2023-04-18T00:26:18.528Z,1.85
2023-04-18T00:27:29.957Z,2.17
2023-04-18T00:28:41.433Z,5.95
2023-04-18T00:29:52.953Z,5.35
2023-04-18T00:31:04.684Z,3.30
2023-04-18T00:32:16.340Z,1.50
2023-04-18T00:33:27.807Z,1.52
2023-04-18T00:34:40.506Z,2.17
2023-04-18T00:35:52.113Z,1.85
2023-04-18T00:37:03.513Z,2.60
2023-04-18T00:38:14.923Z,4.70
2023-04-18T00:39:26.362Z,1.50
2023-04-18T00:40:38.505Z,1.88
2023-04-18T00:41:49.936Z,4.07
2023-04-18T00:43:01.504Z,3.08
2023-04-18T00:44:13.202Z,2.30
2023-04-18T00:45:24.867Z,1.90
2023-04-18T00:46:36.395Z,3.20
2023-04-18T00:47:47.868Z,3.67
2023-04-18T00:48:59.394Z,2.80
2023-04-18T00:50:11.135Z,3.92
2023-04-18T00:51:22.651Z,4.45
2023-04-18T00:52:35.881Z,7.57
2023-04-18T00:53:47.429Z,5.50
2023-04-18T00:54:58.889Z,4.40
2023-04-18T00:56:10.605Z,6.47
2023-04-18T00:57:22.388Z,6.38
2023-04-18T00:58:34.043Z,6.15
2023-04-18T00:59:46.569Z,7.45
2023-04-18T01:00:58.046Z,7.95
2023-04-18T01:02:09.513Z,6.30
2023-04-18T01:03:23.088Z,5.88
2023-04-18T01:04:34.840Z,4.75
2023-04-18T01:05:46.618Z,5.70
2023-04-18T01:06:58.276Z,4.43
2023-04-18T01:08:09.873Z,5.03
2023-04-18T01:09:21.822Z,6.65
2023-04-18T01:10:33.232Z,4.35
2023-04-18T01:11:44.705Z,4.20
2023-04-18T01:13:15.323Z,2.67
2023-04-18T01:14:26.780Z,3.83
2023-04-18T01:15:40.068Z,4.38
2023-04-18T01:16:51.627Z,1.85
2023-04-18T01:18:03.822Z,1.23
2023-04-18T01:19:16.998Z,3.30
2023-04-18T01:20:28.485Z,3.63
2023-04-18T01:21:43.808Z,1.80
2023-04-18T01:22:56.157Z,2.05
2023-04-18T01:24:07.925Z,2.90
2023-04-18T01:25:19.396Z,2.40
2023-04-18T01:26:30.932Z,3.30
2023-04-18T01:27:42.391Z,2.20
2023-04-18T01:28:53.815Z,4.00
2023-04-18T01:30:05.693Z,2.47
2023-04-18T01:31:17.138Z,3.50
2023-04-18T01:32:28.597Z,1.88
2023-04-18T01:33:40.037Z,1.67
2023-04-18T01:34:51.476Z,3.13
2023-04-18T01:36:03.016Z,3.20
2023-04-18T01:37:14.527Z,2.30
2023-04-18T01:38:25.958Z,2.05
2023-04-18T01:39:37.402Z,2.13
2023-04-18T01:40:49.028Z,1.88
2023-04-18T01:42:02.197Z,3.65
2023-04-18T01:43:13.750Z,2.45
2023-04-18T01:44:25.204Z,1.38
2023-04-18T01:45:36.647Z,2.33
2023-04-18T01:46:48.145Z,3.17
2023-04-18T01:47:59.642Z,1.65
2023-04-18T01:49:11.119Z,1.73
2023-04-18T01:50:22.685Z,3.15
2023-04-18T01:51:34.185Z,4.82
2023-04-18T01:52:45.681Z,8.30
2023-04-18T01:53:57.174Z,6.07
2023-04-18T01:55:08.816Z,2.22
2023-04-18T01:56:20.971Z,1.48
2023-04-18T01:57:33.451Z,1.75
2023-04-18T01:58:44.968Z,2.22
2023-04-18T01:59:56.602Z,2.95
2023-04-18T02:01:08.520Z,2.97
2023-04-18T02:02:20.215Z,2.25
2023-04-18T02:03:31.962Z,1.80
2023-04-18T02:04:43.544Z,3.03
2023-04-18T02:05:54.980Z,2.20
2023-04-18T02:07:06.427Z,2.28
2023-04-18T02:08:17.933Z,3.03
2023-04-18T02:09:29.371Z,2.47
2023-04-18T02:10:41.371Z,5.75
2023-04-18T02:11:54.359Z,8.93
2023-04-18T02:13:06.830Z,9.18
2023-04-18T02:14:18.296Z,7.80
2023-04-18T02:15:29.832Z,9.60
2023-04-18T02:16:41.401Z,9.77
2023-04-18T02:17:53.780Z,11.73
2023-04-18T02:19:06.378Z,12.02
2023-04-18T02:20:17.825Z,5.00
2023-04-18T02:21:30.331Z,4.20
2023-04-18T02:22:41.761Z,5.60
2023-04-18T02:23:53.296Z,7.20
2023-04-18T02:25:04.930Z,4.28
2023-04-18T02:26:16.348Z,6.00
2023-04-18T02:27:27.924Z,4.57
2023-04-18T02:28:39.528Z,4.28
2023-04-18T02:29:50.983Z,4.10
2023-04-18T02:31:02.385Z,7.32
2023-04-18T02:32:13.844Z,13.52
2023-04-18T02:33:25.294Z,6.50
2023-04-18T02:34:36.977Z,5.80
2023-04-18T02:35:48.412Z,9.50
2023-04-18T02:37:00.166Z,11.93
2023-04-18T02:38:11.751Z,9.57
2023-04-18T02:39:23.236Z,5.15
2023-04-18T02:40:34.774Z,3.67
2023-04-18T02:41:47.330Z,5.78
2023-04-18T02:42:58.765Z,2.85
2023-04-18T02:44:10.292Z,3.60
2023-04-18T02:45:21.804Z,5.28
2023-04-18T02:46:33.234Z,8.93
2023-04-18T02:47:54.493Z,11.15
2023-04-18T02:49:07.798Z,5.75
2023-04-18T02:50:19.223Z,5.97
2023-04-18T02:51:30.718Z,4.07
2023-04-18T02:52:43.646Z,2.63
2023-04-18T02:53:55.130Z,5.13
2023-04-18T02:55:06.716Z,28.85
2023-04-18T02:56:18.875Z,25.13
2023-04-18T02:57:30.346Z,25.02
2023-04-18T02:58:41.794Z,18.55
2023-04-18T02:59:53.289Z,28.15
2023-04-18T03:01:04.820Z,26.70
2023-04-18T03:02:16.318Z,23.20
2023-04-18T03:03:27.906Z,15.75
2023-04-18T03:04:39.426Z,7.40
2023-04-18T03:05:50.901Z,5.95
2023-04-18T03:07:02.385Z,3.10
2023-04-18T03:08:16.273Z,2.83
2023-04-18T03:09:27.846Z,2.35
2023-04-18T03:10:39.905Z,2.70
2023-04-18T03:11:51.339Z,1.95
2023-04-18T03:13:02.796Z,4.38
2023-04-18T03:14:14.500Z,2.53
2023-04-18T03:15:26.116Z,3.25
2023-04-18T03:16:37.612Z,1.73
2023-04-18T03:17:49.280Z,2.50
2023-04-18T03:19:01.621Z,2.35
2023-04-18T03:20:13.062Z,7.53
2023-04-18T03:21:24.505Z,2.70
2023-04-18T03:22:35.935Z,8.02
2023-04-18T03:23:47.381Z,8.27
2023-04-18T03:25:00.228Z,6.35
2023-04-18T03:26:13.861Z,4.40
2023-04-18T03:27:25.299Z,3.35
2023-04-18T03:28:36.832Z,9.35
2023-04-18T03:29:48.270Z,5.45
2023-04-18T03:30:59.703Z,4.00
2023-04-18T03:32:11.528Z,8.82
2023-04-18T03:33:23.928Z,6.25
2023-04-18T03:34:35.594Z,6.38
2023-04-18T03:35:47.014Z,4.45
2023-04-18T03:36:58.433Z,6.15
2023-04-18T03:38:09.859Z,6.85
2023-04-18T03:39:21.473Z,5.68
2023-04-18T03:40:35.629Z,4.82
2023-04-18T03:41:47.058Z,7.47
2023-04-18T03:42:59.775Z,6.47
2023-04-18T03:44:14.419Z,7.03
2023-04-18T03:45:26.150Z,8.75
2023-04-18T03:46:37.688Z,4.10
2023-04-18T03:47:49.200Z,9.65
2023-04-18T03:49:01.029Z,5.25
2023-04-18T03:50:12.474Z,21.92
2023-04-18T03:51:23.908Z,19.52
2023-04-18T03:52:35.323Z,23.67
2023-04-18T03:53:46.750Z,14.38
2023-04-18T03:54:58.204Z,27.13
2023-04-18T03:56:09.723Z,17.60
2023-04-18T03:57:21.192Z,20.13
2023-04-18T03:58:32.588Z,13.00
2023-04-18T03:59:45.562Z,14.68
2023-04-18T04:00:58.209Z,14.07
2023-04-18T04:02:09.806Z,20.73
2023-04-18T04:03:21.516Z,24.23
2023-04-18T04:04:33.083Z,22.25
2023-04-18T04:05:44.560Z,17.33
2023-04-18T04:06:56.019Z,17.23
2023-04-18T04:08:07.443Z,20.35
2023-04-18T04:09:18.976Z,16.45
2023-04-18T04:10:30.472Z,9.80
2023-04-18T04:11:41.983Z,13.15
2023-04-18T04:12:53.460Z,16.08
2023-04-18T04:14:05.103Z,13.27
2023-04-18T04:15:16.530Z,7.28
2023-04-18T04:16:28.460Z,14.45
2023-04-18T04:17:40.022Z,5.75
2023-04-18T04:18:51.561Z,7.57
2023-04-18T04:20:03.451Z,20.10
2023-04-18T04:21:15.782Z,9.02
2023-04-18T04:22:27.355Z,11.68
2023-04-18T04:23:38.760Z,10.63
2023-04-18T04:24:50.188Z,7.40
2023-04-18T04:26:04.740Z,13.13
2023-04-18T04:27:18.819Z,7.63
2023-04-18T04:28:31.116Z,6.32
2023-04-18T04:29:43.731Z,5.35
2023-04-18T04:30:55.770Z,6.60
2023-04-18T04:32:08.178Z,5.88
2023-04-18T04:33:20.463Z,11.55
2023-04-18T04:34:32.087Z,6.22
2023-04-18T04:35:43.564Z,8.43
2023-04-18T04:36:55.046Z,5.43
2023-04-18T04:38:07.261Z,7.80
2023-04-18T04:39:18.786Z,8.02
2023-04-18T04:40:30.274Z,7.57
2023-04-18T04:41:41.687Z,8.00
2023-04-18T04:42:56.200Z,6.97
2023-04-18T04:44:08.018Z,10.70
2023-04-18T04:45:20.103Z,9.75
2023-04-18T04:46:31.815Z,6.15
2023-04-18T04:47:43.320Z,6.20
2023-04-18T04:48:54.776Z,6.28
2023-04-18T04:50:07.849Z,5.50
2023-04-18T04:51:19.281Z,6.38
2023-04-18T04:52:32.778Z,8.13
2023-04-18T04:53:44.222Z,3.65
2023-04-18T04:54:55.861Z,7.43
2023-04-18T04:56:07.513Z,9.23
2023-04-18T04:57:18.983Z,5.35
2023-04-18T04:58:30.507Z,9.15
2023-04-18T04:59:41.959Z,4.18
2023-04-18T05:00:53.831Z,8.65
2023-04-18T05:02:05.811Z,5.93
2023-04-18T05:03:17.502Z,5.03
2023-04-18T05:04:29.160Z,6.63
2023-04-18T05:05:40.743Z,2.85
2023-04-18T05:06:52.395Z,2.85
2023-04-18T05:08:03.996Z,5.20
2023-04-18T05:09:16.599Z,4.72
2023-04-18T05:10:28.148Z,3.25
2023-04-18T05:11:39.617Z,4.85
2023-04-18T05:12:51.140Z,4.10
2023-04-18T05:14:02.567Z,5.55
2023-04-18T05:15:14.927Z,5.45
2023-04-18T05:16:26.603Z,9.55
2023-04-18T05:17:38.256Z,13.15
2023-04-18T05:18:49.781Z,10.85
2023-04-18T05:20:01.228Z,17.10
2023-04-18T05:21:12.673Z,99.93
2023-04-18T05:22:24.133Z,33.50
2023-04-18T05:23:37.213Z,23.38
2023-04-18T05:24:48.801Z,15.25
2023-04-18T05:26:00.643Z,7.20
2023-04-18T05:27:12.066Z,14.48
2023-04-18T05:28:27.246Z,13.38
2023-04-18T05:29:38.703Z,11.90
2023-04-18T05:30:51.093Z,9.68
2023-04-18T05:32:02.588Z,11.27
2023-04-18T05:33:14.006Z,6.18
2023-04-18T05:34:25.810Z,4.57
2023-04-18T05:35:37.237Z,7.97
2023-04-18T05:36:48.844Z,8.75
2023-04-18T05:38:00.313Z,10.63
2023-04-18T05:39:11.851Z,8.45
2023-04-18T05:40:23.372Z,6.47
2023-04-18T05:41:34.932Z,5.53
2023-04-18T05:42:46.365Z,10.20
2023-04-18T05:44:04.843Z,6.03
2023-04-18T05:45:17.112Z,5.18
2023-04-18T05:46:28.628Z,6.35
2023-04-18T05:47:40.128Z,7.15
2023-04-18T05:48:51.638Z,10.70
2023-04-18T05:50:03.178Z,10.77
2023-04-18T05:51:14.608Z,9.68
2023-04-18T05:52:26.276Z,9.88
2023-04-18T05:53:37.712Z,10.43
2023-04-18T05:54:49.147Z,7.20
2023-04-18T05:56:00.690Z,10.15
2023-04-18T05:57:12.213Z,10.07
2023-04-18T05:58:23.660Z,6.90
2023-04-18T05:59:35.118Z,7.25
2023-04-18T06:00:48.082Z,6.10
2023-04-18T06:01:59.581Z,5.82
2023-04-18T06:03:11.550Z,7.35
2023-04-18T06:04:23.362Z,5.13
2023-04-18T06:05:35.028Z,4.70
2023-04-18T06:06:46.775Z,6.30
2023-04-18T06:07:58.242Z,6.50
2023-04-18T06:09:09.732Z,5.38
2023-04-18T06:10:21.382Z,8.38
2023-04-18T06:11:33.684Z,10.40
2023-04-18T06:12:45.296Z,10.35
2023-04-18T06:13:56.745Z,9.80
2023-04-18T06:15:08.555Z,10.98
2023-04-18T06:16:20.084Z,7.50
2023-04-18T06:17:31.756Z,9.18
2023-04-18T06:18:43.238Z,8.52
2023-04-18T06:19:54.702Z,4.93
2023-04-18T06:21:06.271Z,7.78
2023-04-18T06:22:17.767Z,5.72
2023-04-18T06:23:29.183Z,10.30
2023-04-18T06:24:43.097Z,16.05
2023-04-18T06:25:54.788Z,10.77
2023-04-18T06:27:08.225Z,22.30
2023-04-18T06:28:24.339Z,18.25
2023-04-18T06:29:36.853Z,3.58
2023-04-18T06:30:49.393Z,3.75
2023-04-18T06:32:00.990Z,8.80
2023-04-18T06:33:12.445Z,8.00
2023-04-18T06:34:23.865Z,7.03
2023-04-18T06:35:35.491Z,4.30
2023-04-18T06:36:46.924Z,4.07
2023-04-18T06:37:58.406Z,4.85
2023-04-18T06:39:09.827Z,7.38
2023-04-18T06:40:21.449Z,5.97
2023-04-18T06:41:32.937Z,5.03
2023-04-18T06:42:44.419Z,7.82
2023-04-18T06:44:03.498Z,4.55
2023-04-18T06:45:16.041Z,5.45
2023-04-18T06:46:27.559Z,6.45
2023-04-18T06:47:39.768Z,7.65
2023-04-18T06:48:51.572Z,4.43
2023-04-18T06:50:03.215Z,4.15
2023-04-18T06:51:14.720Z,4.05
2023-04-18T06:52:26.296Z,4.53
2023-04-18T06:53:37.769Z,4.15
2023-04-18T06:54:49.275Z,5.72
2023-04-18T06:56:00.811Z,4.53
2023-04-18T06:57:12.351Z,5.32
2023-04-18T06:58:23.810Z,3.67
2023-04-18T06:59:35.884Z,4.40
2023-04-18T07:00:51.876Z,3.30
2023-04-18T07:02:03.459Z,3.10
2023-04-18T07:03:15.093Z,6.43
2023-04-18T07:04:27.049Z,4.05
2023-04-18T07:05:41.533Z,3.28
2023-04-18T07:06:53.006Z,2.45
2023-04-18T07:08:04.560Z,3.17
2023-04-18T07:09:16.061Z,6.25
2023-04-18T07:10:27.535Z,3.90
2023-04-18T07:11:40.636Z,4.40
2023-04-18T07:12:52.101Z,5.10
2023-04-18T07:14:03.600Z,5.57
2023-04-18T07:15:15.133Z,4.13
2023-04-18T07:16:26.689Z,3.10
2023-04-18T07:17:38.249Z,2.85
2023-04-18T07:18:51.801Z,4.05
2023-04-18T07:20:03.312Z,2.33
2023-04-18T07:21:14.767Z,2.65
2023-04-18T07:22:26.415Z,2.22
2023-04-18T07:23:37.945Z,7.03
2023-04-18T07:24:49.419Z,2.85
2023-04-18T07:26:02.744Z,11.35
2023-04-18T07:27:14.823Z,16.48
2023-04-18T07:28:26.282Z,26.92
2023-04-18T07:29:40.189Z,25.55
2023-04-18T07:30:51.849Z,36.60
2023-04-18T07:32:03.468Z,34.55
2023-04-18T07:33:16.037Z,17.20
2023-04-18T07:34:29.880Z,8.52
2023-04-18T07:35:41.585Z,3.33
2023-04-18T07:36:53.114Z,3.80
2023-04-18T07:38:04.549Z,1.17
2023-04-18T07:39:16.176Z,3.42
2023-04-18T07:40:27.662Z,2.30
2023-04-18T07:41:39.192Z,1.30
2023-04-18T07:42:50.718Z,1.80
2023-04-18T07:44:02.809Z,2.88
2023-04-18T07:45:15.498Z,1.95
2023-04-18T07:46:26.991Z,2.00
2023-04-18T07:47:38.472Z,1.98
2023-04-18T07:48:50.324Z,8.27
2023-04-18T07:50:02.066Z,2.05
2023-04-18T07:51:13.566Z,2.63
2023-04-18T07:52:25.026Z,1.88
2023-04-18T07:53:36.717Z,3.90
2023-04-18T07:54:48.158Z,1.63
2023-04-18T07:55:59.590Z,1.10
2023-04-18T07:57:11.216Z,0.80
2023-04-18T07:58:22.668Z,0.95
2023-04-18T07:59:34.200Z,2.10
2023-04-18T08:00:45.764Z,4.45
2023-04-18T08:01:57.229Z,43.13
2023-04-18T08:03:12.435Z,26.52
2023-04-18T08:04:25.826Z,47.45
2023-04-18T08:05:39.725Z,42.88
2023-04-18T08:06:51.306Z,50.15
2023-04-18T08:08:02.727Z,33.90
2023-04-18T08:09:14.556Z,43.88
2023-04-18T08:10:26.487Z,6.38
2023-04-18T08:11:38.999Z,7.65
2023-04-18T08:12:50.501Z,10.43
2023-04-18T08:14:01.914Z,6.97
2023-04-18T08:15:13.438Z,10.95
2023-04-18T08:16:25.601Z,4.18
2023-04-18T08:17:38.918Z,8.85
2023-04-18T08:18:52.340Z,4.38
2023-04-18T08:20:07.177Z,6.43
2023-04-18T08:21:19.381Z,3.78
2023-04-18T08:22:30.859Z,10.65
2023-04-18T08:23:42.386Z,6.57
2023-04-18T08:26:08.880Z,3.60
2023-04-18T08:27:20.337Z,3.38
2023-04-18T08:28:31.842Z,5.28
2023-04-18T08:29:43.272Z,4.43
2023-04-18T08:30:56.596Z,6.07
2023-04-18T08:32:08.182Z,25.08
2023-04-18T08:33:19.685Z,22.08
2023-04-18T08:34:33.021Z,15.48
2023-04-18T08:35:44.532Z,9.52
2023-04-18T08:36:56.706Z,8.07
2023-04-18T08:38:08.109Z,9.93
2023-04-18T08:39:19.593Z,6.38
2023-04-18T08:40:31.098Z,8.63
2023-04-18T08:41:43.217Z,7.60
2023-04-18T08:42:56.207Z,15.20
2023-04-18T08:44:07.829Z,7.10
2023-04-18T08:45:20.065Z,6.72
2023-04-18T08:46:35.992Z,8.45
2023-04-18T08:47:47.508Z,11.55
2023-04-18T08:48:59.614Z,10.45
2023-04-18T08:50:11.301Z,6.47
2023-04-18T08:51:22.973Z,12.00
2023-04-18T08:52:36.134Z,7.60
2023-04-18T08:53:48.424Z,9.65
2023-04-18T08:54:59.903Z,7.50
2023-04-18T08:56:14.678Z,14.63
2023-04-18T08:57:31.064Z,14.07
2023-04-18T08:58:45.088Z,19.25
2023-04-18T08:59:57.050Z,14.40
2023-04-18T09:01:08.880Z,12.98
2023-04-18T09:02:23.479Z,8.25
2023-04-18T09:03:37.494Z,9.27
2023-04-18T09:04:52.826Z,11.02
2023-04-18T09:06:14.033Z,7.82
2023-04-18T09:07:28.934Z,5.93
2023-04-18T09:08:41.597Z,5.80
2023-04-18T09:09:53.823Z,6.25
2023-04-18T09:11:21.066Z,12.65
2023-04-18T09:12:32.612Z,9.63
2023-04-18T09:13:47.187Z,6.75
2023-04-18T09:15:15.083Z,4.57
2023-04-18T09:16:27.752Z,11.50
2023-04-18T09:17:45.535Z,8.35
2023-04-18T09:19:13.982Z,15.00
2023-04-18T09:20:34.615Z,9.55
2023-04-18T09:21:47.239Z,15.35
2023-04-18T09:23:00.977Z,10.98
2023-04-18T09:24:24.266Z,11.35
2023-04-18T09:25:43.289Z,16.15
2023-04-18T09:27:00.138Z,26.58
2023-04-18T09:28:28.828Z,16.75
2023-04-18T09:29:55.796Z,18.42
2023-04-18T09:31:10.199Z,10.75
2023-04-18T09:32:25.748Z,18.45
2023-04-18T09:33:37.928Z,24.38
2023-04-18T09:34:49.578Z,16.70
2023-04-18T09:36:20.136Z,12.02
2023-04-18T09:37:31.779Z,4.88
2023-04-18T09:38:43.303Z,6.68
2023-04-18T09:39:55.071Z,1.40
2023-04-18T09:41:10.324Z,18.77
2023-04-18T09:42:22.412Z,18.15
2023-04-18T09:43:33.888Z,13.20
2023-04-18T09:44:58.760Z,20.88
2023-04-18T09:46:10.815Z,11.90
2023-04-18T09:47:22.305Z,5.95
2023-04-18T09:48:33.935Z,6.85
2023-04-18T09:49:45.533Z,10.32
2023-04-18T09:50:57.126Z,5.10
2023-04-18T09:52:08.813Z,6.55
2023-04-18T09:53:21.090Z,7.85
2023-04-18T09:54:33.055Z,3.00
2023-04-18T09:55:45.070Z,1.50
2023-04-18T09:56:58.661Z,1.98
2023-04-18T09:58:10.792Z,8.38
2023-04-18T09:59:33.072Z,4.03
2023-04-18T10:00:46.914Z,6.13
2023-04-18T10:01:59.437Z,4.60
2023-04-18T10:03:11.910Z,2.90
2023-04-18T10:04:24.334Z,4.47
2023-04-18T10:05:36.962Z,3.08
2023-04-18T10:06:48.679Z,1.65
2023-04-18T10:08:00.133Z,2.08
2023-04-18T10:09:12.493Z,7.13
2023-04-18T10:10:24.418Z,3.92
2023-04-18T10:11:36.543Z,3.72
2023-04-18T10:12:48.777Z,4.47
2023-04-18T10:14:06.961Z,3.92
2023-04-18T10:15:20.118Z,8.68
2023-04-18T10:16:34.093Z,6.47
2023-04-18T10:18:03.517Z,23.00
2023-04-18T10:19:20.254Z,43.05
2023-04-18T10:20:32.471Z,24.92
2023-04-18T10:21:51.126Z,16.83
2023-04-18T10:23:20.920Z,11.80
2023-04-18T10:24:48.659Z,7.82
2023-04-18T10:26:00.466Z,5.57
2023-04-18T10:27:11.948Z,11.43
2023-04-18T10:28:24.548Z,13.43
2023-04-18T10:29:52.903Z,15.02
2023-04-18T10:31:05.149Z,26.98
2023-04-18T10:32:22.347Z,15.20
2023-04-18T10:33:40.962Z,14.10
2023-04-18T10:34:53.919Z,13.27
2023-04-18T10:36:28.320Z,7.35
2023-04-18T10:37:50.313Z,10.45
2023-04-18T10:39:20.985Z,4.93
2023-04-18T10:40:34.123Z,9.30
2023-04-18T10:41:50.615Z,8.90
2023-04-18T10:43:02.680Z,10.23
2023-04-18T10:44:14.892Z,2.63
2023-04-18T10:45:28.559Z,4.55
2023-04-18T11:08:37.225Z,12.23
2023-04-18T11:09:55.051Z,10.13
2023-04-18T11:11:09.483Z,14.55
2023-04-18T11:12:20.952Z,11.80
2023-04-18T11:13:32.473Z,8.95
2023-04-18T11:14:44.963Z,5.97
2023-04-18T11:15:56.448Z,3.92
2023-04-18T11:17:27.512Z,3.72
2023-04-18T11:18:42.130Z,9.15
2023-04-18T11:20:00.477Z,5.28
2023-04-18T11:21:11.924Z,4.45
2023-04-18T11:22:23.584Z,5.32
2023-04-18T11:23:35.060Z,3.13
2023-04-18T11:24:46.540Z,6.47
2023-04-18T11:25:58.744Z,4.85
2023-04-18T11:27:11.132Z,4.55
2023-04-18T11:28:24.771Z,6.47
2023-04-18T11:29:36.293Z,2.03
2023-04-18T11:30:47.912Z,3.17
2023-04-18T11:31:59.386Z,4.88
2023-04-18T11:33:14.327Z,6.72
2023-04-18T11:34:35.866Z,11.75
2023-04-18T11:35:47.463Z,5.85
2023-04-18T11:36:59.156Z,6.57
2023-04-18T11:38:12.061Z,4.60
2023-04-18T11:39:23.652Z,4.85
2023-04-18T11:40:36.400Z,6.50
2023-04-18T11:41:50.652Z,5.43
2023-04-18T11:43:02.767Z,2.67
2023-04-18T11:44:15.537Z,3.92
2023-04-18T11:45:27.458Z,11.68
2023-04-18T11:46:40.665Z,2.45
2023-04-18T11:47:55.224Z,6.05
2023-04-18T11:49:06.718Z,5.25
2023-04-18T11:50:18.213Z,3.88
2023-04-18T11:51:34.666Z,5.63
2023-04-18T11:52:49.338Z,3.83
2023-04-18T11:54:00.794Z,4.13
2023-04-18T11:55:21.307Z,5.03
2023-04-18T11:56:34.619Z,8.47
2023-04-18T11:57:52.007Z,4.45
2023-04-18T11:59:09.856Z,4.32
2023-04-18T12:00:34.973Z,2.75
2023-04-18T12:01:46.755Z,5.50
2023-04-18T12:03:18.941Z,4.13
2023-04-18T12:04:30.751Z,4.70
2023-04-18T12:05:42.392Z,4.60
2023-04-18T12:06:54.141Z,3.90
2023-04-18T12:08:09.539Z,5.53
2023-04-18T12:09:25.123Z,9.15
2023-04-18T12:10:36.929Z,6.72
2023-04-18T12:12:01.119Z,15.07
2023-04-18T12:13:12.704Z,4.73
2023-04-18T12:14:24.348Z,6.63
2023-04-18T12:15:38.783Z,3.83
2023-04-18T12:16:50.385Z,5.10
2023-04-18T12:18:03.553Z,4.53
2023-04-18T12:19:15.239Z,7.43
2023-04-18T12:20:36.947Z,5.38
2023-04-18T12:22:01.019Z,7.55
2023-04-18T12:23:31.193Z,3.75
2023-04-18T12:24:43.448Z,7.35
2023-04-18T12:26:01.950Z,10.57
2023-04-18T12:27:13.440Z,8.77
2023-04-18T12:28:25.933Z,8.98
2023-04-18T12:29:37.575Z,5.18
2023-04-18T12:30:48.988Z,4.95
2023-04-18T12:32:00.568Z,3.85
2023-04-18T12:33:12.408Z,4.38
2023-04-18T12:34:23.997Z,6.35
2023-04-18T12:35:35.703Z,5.85
2023-04-18T12:36:47.210Z,4.38
2023-04-18T12:37:59.578Z,8.48
2023-04-18T12:39:11.030Z,5.22
2023-04-18T12:40:23.287Z,6.82
2023-04-18T12:41:34.895Z,10.50
2023-04-18T12:42:47.233Z,4.77
2023-04-18T12:43:58.708Z,4.60
2023-04-18T12:45:11.744Z,4.72
2023-04-18T12:46:23.201Z,4.53
2023-04-18T12:47:35.746Z,13.85
2023-04-18T12:48:47.298Z,10.37
2023-04-18T12:49:59.871Z,5.35
2023-04-18T12:51:11.325Z,4.80
2023-04-18T12:52:22.792Z,4.50
2023-04-18T12:53:34.284Z,8.18
2023-04-18T12:54:46.125Z,5.80
2023-04-18T12:55:57.578Z,4.87
2023-04-18T12:57:09.017Z,2.47
2023-04-18T12:58:20.988Z,7.20
2023-04-18T12:59:32.460Z,6.38
2023-04-18T13:00:44.044Z,4.45
2023-04-18T13:01:55.781Z,6.15
2023-04-18T13:03:08.240Z,11.65
2023-04-18T13:04:20.953Z,4.22
2023-04-18T13:05:34.061Z,9.30
2023-04-18T13:06:45.822Z,9.52
2023-04-18T13:08:08.628Z,2.70
2023-04-18T13:09:27.749Z,7.82
2023-04-18T13:10:39.206Z,9.50
2023-04-18T13:11:50.747Z,5.38
2023-04-18T13:13:02.170Z,5.40
2023-04-18T13:14:13.791Z,7.05
2023-04-18T13:15:27.458Z,9.30
2023-04-18T13:16:39.766Z,13.00
2023-04-18T13:17:52.574Z,9.65
2023-04-18T13:19:04.111Z,5.65
2023-04-18T13:20:16.411Z,3.28
2023-04-18T13:21:28.262Z,2.65
2023-04-18T13:22:40.580Z,9.65
2023-04-18T13:23:52.067Z,7.18
2023-04-18T13:25:03.876Z,13.87
2023-04-18T13:26:15.284Z,15.23
2023-04-18T13:27:26.942Z,5.90
2023-04-18T13:28:38.401Z,3.92
2023-04-18T13:29:50.008Z,7.25
2023-04-18T13:31:01.417Z,5.68
2023-04-18T13:32:13.381Z,6.88
2023-04-18T13:33:24.858Z,6.15
2023-04-18T13:34:41.347Z,8.18
2023-04-18T13:35:52.871Z,5.95
2023-04-18T13:37:04.366Z,5.28
2023-04-18T13:38:15.896Z,11.57
2023-04-18T13:39:27.444Z,4.45
2023-04-18T13:40:38.865Z,6.55
2023-04-18T13:41:50.420Z,6.90
2023-04-18T13:43:01.935Z,5.28
2023-04-18T13:44:13.392Z,9.43
2023-04-18T13:45:24.889Z,8.83
2023-04-18T13:46:36.617Z,6.00
2023-04-18T13:47:48.104Z,7.63
2023-04-18T13:48:59.583Z,9.80
2023-04-18T13:50:11.420Z,8.43
2023-04-18T13:51:22.938Z,10.30
2023-04-18T13:52:34.458Z,11.27
2023-04-18T13:53:45.880Z,3.73
2023-04-18T13:54:57.381Z,9.57
2023-04-18T13:56:08.836Z,8.53
2023-04-18T13:57:20.924Z,8.90
2023-04-18T13:58:32.467Z,17.83
2023-04-18T13:59:43.965Z,13.43
2023-04-18T14:00:56.167Z,32.60
2023-04-18T14:02:10.783Z,19.77
2023-04-18T14:03:22.779Z,8.20
2023-04-18T14:04:34.938Z,11.10
2023-04-18T14:05:46.458Z,11.27
2023-04-18T14:06:58.124Z,6.27
2023-04-18T14:08:09.622Z,4.93
2023-04-18T14:09:21.205Z,9.70
2023-04-18T14:10:32.722Z,7.27
2023-04-18T14:11:44.732Z,5.47
2023-04-18T14:12:56.235Z,4.80
2023-04-18T14:14:07.848Z,3.77
2023-04-18T14:15:19.558Z,6.43
2023-04-18T14:16:33.410Z,4.20
2023-04-18T14:17:45.873Z,10.00
2023-04-18T14:18:58.231Z,7.53
2023-04-18T14:20:09.843Z,7.93
2023-04-18T14:21:21.343Z,8.70
2023-04-18T14:22:32.827Z,5.40
2023-04-18T14:23:44.241Z,6.30
2023-04-18T14:24:56.194Z,6.67
2023-04-18T14:26:07.702Z,5.00
2023-04-18T14:27:19.158Z,3.07
2023-04-18T14:28:30.658Z,4.60
2023-04-18T14:29:42.293Z,4.40
2023-04-18T14:30:57.824Z,7.13
2023-04-18T14:32:09.547Z,9.43
2023-04-18T14:33:20.998Z,4.27
2023-04-18T14:34:34.394Z,9.37
2023-04-18T14:35:49.597Z,3.83
2023-04-18T14:37:01.216Z,6.13
2023-04-18T14:38:12.689Z,5.30
2023-04-18T14:39:24.795Z,5.70
2023-04-18T14:40:36.332Z,6.90
2023-04-18T14:41:48.316Z,4.23
2023-04-18T14:42:59.836Z,1.57
2023-04-18T14:44:11.333Z,3.13
2023-04-18T14:45:22.814Z,3.83
2023-04-18T14:46:34.274Z,3.83
2023-04-18T14:47:45.855Z,3.97
2023-04-18T14:48:57.397Z,3.33
2023-04-18T14:50:09.512Z,5.57
2023-04-18T14:51:20.990Z,7.60
2023-04-18T14:52:35.151Z,3.07
2023-04-18T14:53:46.641Z,1.70
2023-04-18T14:54:58.051Z,2.10
2023-04-18T14:56:09.630Z,2.83
2023-04-18T14:57:21.108Z,2.87
2023-04-18T14:58:32.593Z,3.47
2023-04-18T14:59:44.119Z,3.25
2023-04-18T15:00:56.362Z,3.00
2023-04-18T15:02:07.920Z,7.30
2023-04-18T15:03:19.571Z,6.57
2023-04-18T15:04:31.199Z,7.17
2023-04-18T15:05:48.534Z,5.10
2023-04-18T15:06:59.959Z,3.27
2023-04-18T15:08:11.525Z,3.73
2023-04-18T15:09:23.017Z,4.03
2023-04-18T15:10:34.427Z,6.10
2023-04-18T15:11:45.857Z,2.40
2023-04-18T15:12:57.534Z,3.33
2023-04-18T15:14:09.114Z,3.70
2023-04-18T15:15:20.983Z,2.15
2023-04-18T15:16:32.547Z,3.23
2023-04-18T15:17:44.180Z,5.57
2023-04-18T15:18:55.713Z,4.17
2023-04-18T15:20:07.823Z,2.83
2023-04-18T15:21:19.273Z,2.30
2023-04-18T15:22:30.766Z,4.47
2023-04-18T15:23:42.228Z,3.42
2023-04-18T15:24:53.673Z,3.73
2023-04-18T15:26:05.264Z,6.20
2023-04-18T15:27:18.714Z,5.23
2023-04-18T15:28:30.919Z,5.73
2023-04-18T15:29:42.421Z,2.50
2023-04-18T15:30:54.017Z,2.72
2023-04-18T15:32:06.262Z,6.28
2023-04-18T15:33:19.175Z,5.03
2023-04-18T15:34:31.404Z,4.70
2023-04-18T15:35:42.873Z,8.77
2023-04-18T15:36:54.319Z,9.75
2023-04-18T15:38:06.809Z,8.13
2023-04-18T15:39:21.714Z,10.07
2023-04-18T15:40:33.221Z,12.18
2023-04-18T15:41:44.826Z,8.43
2023-04-18T15:42:57.882Z,11.10
2023-04-18T15:44:09.342Z,16.73
2023-04-18T15:45:21.435Z,15.25
2023-04-18T15:46:33.122Z,10.48
2023-04-18T15:47:44.678Z,14.73
2023-04-18T15:48:56.261Z,12.60
2023-04-18T15:50:08.421Z,12.30
2023-04-18T15:51:20.011Z,10.35
2023-04-18T15:52:31.518Z,4.63
2023-04-18T15:53:43.057Z,10.02
2023-04-18T15:54:54.624Z,10.20
2023-04-18T15:56:06.450Z,11.73
2023-04-18T15:57:18.276Z,5.27
2023-04-18T15:58:30.462Z,9.50
2023-04-18T15:59:41.995Z,8.95
2023-04-18T16:00:55.011Z,7.67
2023-04-18T16:02:08.473Z,9.43
2023-04-18T16:03:20.324Z,13.10
2023-04-18T16:04:33.047Z,13.37
2023-04-18T16:05:44.714Z,11.87
2023-04-18T16:06:56.276Z,5.53
2023-04-18T16:08:09.042Z,7.93
2023-04-18T16:09:20.547Z,8.90
2023-04-18T16:10:32.034Z,14.60
2023-04-18T16:11:43.606Z,9.53
2023-04-18T16:12:55.072Z,13.57
2023-04-18T16:14:06.554Z,9.05
2023-04-18T16:15:18.089Z,8.07
2023-04-18T16:16:29.706Z,7.70
2023-04-18T16:17:41.246Z,7.93
2023-04-18T16:18:52.758Z,7.53
2023-04-18T16:20:05.975Z,8.37
2023-04-18T16:21:17.528Z,6.33
2023-04-18T16:22:29.052Z,6.03
2023-04-18T16:23:40.775Z,5.90